Quantico MCAF /Turner field
KNYG : now visible

Airfield :











YOU CAN JOIN US ON...

 
LOGIN :

Register | Disclaimer

   EN    FR    IT 

 









Legend :    VFR   Marginal VFR   IFR   Intensive IFR   Very Intensive IFR
Visi :
Ceiling :
>= 8 km
>= 3000ft
5 to 8 km
1000 to 3000 ft
1500m to 5 km
500 to 1000 ft
800 to 1500m
200 to 500 ft
< 800m
< 200 ft
Symbols :   Thunderstorms  Fog  Heavy snow  Heavy precipitations  Wind > 20 kt






- Airport Elevation : 10 ft


KNYG - Quantico MCAF /Turner field

CURRENT METAR :
  • 080656Z AUTO 16003KT 10SM SCT110 09/03 A3013 RMK AO2 SLP203 T00890033 $

EXPIRED METARs :
  • 080556Z AUTO 18003KT 10SM BKN110 09/03 A3013 RMK AO2 SLP205 T00890033 10100 20078 56013 $
  • 080456Z 19005KT 10SM FEW110 08/04 A3014 RMK AO2 SLP206 T00830039 401001011 $

TAF TAF KNYG
Valid from the 07 at 21:00 until the 08 at 21:00 UTC


0721/0821 16011KT 9999 FEW150 QNH3015INS
BECMG 0806/0808 VRB06KT 9999 SCT050 BKN100 QNH3014INS LAST NO AMDS AFT 0721 NEXT 0809 AUTOMATED SENSOR METWATCH 0800 TIL 0812 T06/0812Z T14/0818Z
KZDC FIR / North America



MET'MAP, your aeronautical weather chart ! - Copyright ORBIFLY December 2007 - Disclaimer

ORBIFLY MET'MAP TEAM :

Programming & Development : Alexandra Zaïnal
Original concept : Baudouin d'Aumeries
Technical & hardware support : Manuel Goepfert
Assistance : Marc-Olivier Méhu




SOURCES & CREDITS :

   NOAA       Earth
Advisory